Time;durP1;ratioP1;P1;durP2;ratioP2;P2;SDS_P1;SDS_P2;PMS_P1;PMS_P2;Temp;Humidity;BMP_temperature;BMP_pressure;BME280_temperature;BME280_humidity;BME280_pressure;Samples;Min_cycle;Max_cycle;Signal;HPM_P1;HPM_P2
2022/12/07 00:02:27;;;;;;;25.17;11.77;;;5.50;99.90;;;;;;5021065;28;20489;-60
2022/12/07 00:04:54;;;;;;;26.40;9.80;;;5.60;99.90;;;;;;5030913;28;20575;-60
2022/12/07 00:07:21;;;;;;;34.23;13.53;;;5.60;99.90;;;;;;5016663;28;20477;-60
2022/12/07 00:09:48;;;;;;;20.80;9.27;;;5.70;99.90;;;;;;5023635;28;20485;-60
2022/12/07 00:12:14;;;;;;;35.53;11.87;;;5.60;99.70;;;;;;5030001;28;20487;-60
2022/12/07 00:14:41;;;;;;;24.50;10.97;;;5.60;99.90;;;;;;5028333;28;20491;-60
2022/12/07 00:17:08;;;;;;;21.70;9.90;;;5.60;99.70;;;;;;5045844;28;20474;-60
2022/12/07 00:19:36;;;;;;;18.30;8.63;;;5.70;99.90;;;;;;5014613;28;20902;-60
2022/12/07 00:22:03;;;;;;;26.00;11.20;;;5.70;99.90;;;;;;5018646;28;20461;-60
2022/12/07 00:24:30;;;;;;;36.07;13.13;;;5.60;99.90;;;;;;5013357;28;20889;-60
2022/12/07 00:26:56;;;;;;;28.60;10.13;;;5.50;99.90;;;;;;5012482;28;20740;-60
2022/12/07 00:29:23;;;;;;;30.53;12.53;;;5.40;99.70;;;;;;5019969;28;20481;-60
2022/12/07 00:31:50;;;;;;;24.53;11.50;;;5.30;99.80;;;;;;5019560;28;20619;-60
2022/12/07 00:34:19;;;;;;;34.80;13.67;;;5.20;99.30;;;;;;5014201;28;20838;-60
2022/12/07 00:36:47;;;;;;;19.50;9.60;;;5.30;99.40;;;;;;5021031;28;21006;-60
2022/12/07 00:39:14;;;;;;;36.53;12.83;;;5.20;99.20;;;;;;5018068;28;20493;-60
2022/12/07 00:41:41;;;;;;;29.40;10.90;;;6.20;99.90;;;;;;5028420;28;20481;-60
2022/12/07 00:44:08;;;;;;;24.17;10.87;;;5.30;99.10;;;;;;5019005;28;20485;-60
2022/12/07 00:46:34;;;;;;;38.07;14.23;;;5.20;99.30;;;;;;5012177;28;20475;-60
2022/12/07 00:49:01;;;;;;;23.67;10.53;;;5.10;99.40;;;;;;5023536;28;20878;-59
2022/12/07 00:51:28;;;;;;;28.70;12.23;;;5.00;99.70;;;;;;5011578;28;20481;-59
2022/12/07 00:53:56;;;;;;;26.03;12.37;;;5.10;99.90;;;;;;5014580;28;20496;-60
2022/12/07 00:56:24;;;;;;;27.60;11.53;;;5.20;99.90;;;;;;5017986;28;20490;-60
2022/12/07 00:58:53;;;;;;;19.07;9.23;;;5.30;99.90;;;;;;5024588;28;20807;-60
2022/12/07 01:01:20;;;;;;;29.73;12.67;;;5.40;99.90;;;;;;5018510;28;20556;-60
2022/12/07 01:03:47;;;;;;;24.60;9.33;;;5.40;99.90;;;;;;5028602;28;20477;-60
2022/12/07 01:06:16;;;;;;;24.73;11.03;;;5.40;99.90;;;;;;5022355;28;21039;-60
2022/12/07 01:08:42;;;;;;;19.80;10.50;;;5.40;99.90;;;;;;5003161;28;20583;-60
2022/12/07 01:11:14;;;;;;;24.93;10.70;;;5.50;99.90;;;;;;5013942;28;20467;-60
2022/12/07 01:13:41;;;;;;;22.00;10.83;;;5.50;99.90;;;;;;5032742;28;20999;-60
2022/12/07 01:16:10;;;;;;;29.30;12.07;;;5.60;99.90;;;;;;5034930;28;21212;-60
2022/12/07 01:18:38;;;;;;;20.73;11.53;;;5.60;99.80;;;;;;5032179;28;20714;-60
2022/12/07 01:21:07;;;;;;;17.97;10.00;;;5.50;99.50;;;;;;5024555;28;20703;-60
2022/12/07 01:23:35;;;;;;;21.77;10.43;;;5.30;99.90;;;;;;5013688;28;20481;-60
2022/12/07 01:26:04;;;;;;;26.60;13.53;;;5.30;99.90;;;;;;5011580;28;20504;-60
2022/12/07 01:28:32;;;;;;;21.83;11.27;;;5.30;99.90;;;;;;5012544;28;20990;-60
2022/12/07 01:31:00;;;;;;;22.50;10.47;;;5.30;99.90;;;;;;5025902;28;20484;-59
2022/12/07 01:33:29;;;;;;;31.80;14.20;;;5.20;99.90;;;;;;5023529;28;20476;-60
2022/12/07 01:36:00;;;;;;;34.13;15.30;;;5.20;99.90;;;;;;5012165;28;20497;-59
2022/12/07 01:38:27;;;;;;;24.03;10.87;;;5.20;99.90;;;;;;5015737;28;21062;-59
2022/12/07 01:40:58;;;;;;;19.23;9.97;;;5.30;99.90;;;;;;5023002;28;20465;-58
2022/12/07 01:43:27;;;;;;;27.40;12.60;;;5.40;99.90;;;;;;5023589;28;20483;-59
2022/12/07 01:45:56;;;;;;;25.37;11.77;;;5.40;99.90;;;;;;5014796;28;21319;-60
2022/12/07 01:48:26;;;;;;;31.17;13.57;;;5.30;99.90;;;;;;5016093;28;20481;-60
2022/12/07 01:50:55;;;;;;;40.93;11.67;;;5.20;99.90;;;;;;5016937;28;20480;-59
2022/12/07 01:53:25;;;;;;;31.23;13.57;;;5.10;99.90;;;;;;5020435;28;20856;-59
2022/12/07 01:55:54;;;;;;;27.63;12.70;;;5.00;99.90;;;;;;5014319;28;20480;-59
2022/12/07 01:58:21;;;;;;;41.17;16.10;;;4.90;99.90;;;;;;5024817;28;20484;-59
2022/12/07 02:00:48;;;;;;;21.40;12.37;;;4.80;99.90;;;;;;5013862;28;20479;-59
2022/12/07 02:03:20;;;;;;;26.87;12.97;;;4.80;99.90;;;;;;5013034;28;20713;-59
2022/12/07 02:05:49;;;;;;;29.53;14.80;;;4.60;99.90;;;;;;5003071;28;20491;-59
2022/12/07 02:08:16;;;;;;;29.10;13.03;;;4.70;99.90;;;;;;5041794;28;20480;-59
2022/12/07 02:10:43;;;;;;;28.03;11.47;;;4.60;99.90;;;;;;5014447;28;21202;-59
2022/12/07 02:13:13;;;;;;;25.53;11.40;;;4.60;99.90;;;;;;5016891;28;20908;-59
2022/12/07 02:15:51;;;;;;;26.10;12.57;;;4.70;99.90;;;;;;5028228;28;20735;-60
2022/12/07 02:18:26;;;;;;;25.40;10.57;;;4.80;99.90;;;;;;5029766;28;20480;-59
2022/12/07 02:20:58;;;;;;;23.10;11.40;;;4.80;99.90;;;;;;5025897;28;20484;-59
2022/12/07 02:24:07;;;;;;;29.80;13.00;;;4.60;99.90;;;;;;5013661;28;20488;-59
2022/12/07 02:27:03;;;;;;;21.90;12.80;;;4.40;99.90;;;;;;5007709;28;20479;-60
2022/12/07 02:29:36;;;;;;;26.33;12.60;;;4.40;99.90;;;;;;5035157;28;20480;-59
2022/12/07 02:32:08;;;;;;;22.83;10.80;;;4.40;99.90;;;;;;5039080;28;20491;-59
2022/12/07 02:34:43;;;;;;;27.20;12.97;;;4.30;99.90;;;;;;5038120;28;20480;-59
2022/12/07 02:37:18;;;;;;;27.53;11.60;;;4.30;99.90;;;;;;5036906;28;20826;-59
2022/12/07 02:39:50;;;;;;;19.73;11.23;;;4.30;99.90;;;;;;5034701;28;20494;-59
2022/12/07 02:42:22;;;;;;;41.20;15.27;;;4.30;99.90;;;;;;5043902;28;20484;-59
2022/12/07 02:44:52;;;;;;;23.83;10.43;;;4.40;99.90;;;;;;5034219;28;20484;-59
2022/12/07 02:47:22;;;;;;;39.03;15.53;;;4.50;99.90;;;;;;5033160;28;20885;-59
2022/12/07 02:49:50;;;;;;;21.90;8.67;;;4.60;99.90;;;;;;5037660;28;20832;-60
2022/12/07 02:52:17;;;;;;;45.13;16.90;;;4.70;99.90;;;;;;5034281;28;20492;-59
2022/12/07 02:54:43;;;;;;;25.60;12.03;;;4.80;99.90;;;;;;5019461;28;20477;-59
2022/12/07 02:57:22;;;;;;;26.17;10.27;;;4.70;99.90;;;;;;5035504;28;20488;-59
2022/12/07 03:00:05;;;;;;;23.27;11.10;;;4.60;99.90;;;;;;5035649;28;20488;-59
2022/12/07 03:02:42;;;;;;;21.13;10.40;;;4.50;99.90;;;;;;5037072;28;20468;-60
2022/12/07 03:05:36;;;;;;;20.80;10.13;;;4.40;99.90;;;;;;5009011;28;20476;-59
2022/12/07 03:08:07;;;;;;;23.27;10.27;;;4.30;99.90;;;;;;5033763;28;20480;-59
2022/12/07 03:10:42;;;;;;;19.03;9.10;;;4.30;99.90;;;;;;5035721;28;21004;-59
2022/12/07 03:13:15;;;;;;;25.13;11.50;;;4.40;99.90;;;;;;5020491;28;21003;-59
2022/12/07 03:15:47;;;;;;;24.50;10.73;;;4.60;99.90;;;;;;5030627;28;20542;-59
2022/12/07 03:18:19;;;;;;;34.37;12.03;;;4.70;99.90;;;;;;5012619;28;20918;-59
2022/12/07 03:20:48;;;;;;;18.07;8.80;;;4.70;99.90;;;;;;5019182;28;20504;-59
2022/12/07 03:23:18;;;;;;;38.47;14.63;;;4.60;99.90;;;;;;5014494;28;20922;-59
2022/12/07 03:25:48;;;;;;;19.60;10.33;;;4.50;99.90;;;;;;5014213;28;20484;-58
2022/12/07 03:28:18;;;;;;;40.30;15.87;;;4.50;99.90;;;;;;5028094;28;20992;-59
2022/12/07 03:30:49;;;;;;;32.73;11.90;;;4.30;99.90;;;;;;5034386;28;20483;-59
2022/12/07 03:33:21;;;;;;;32.20;14.50;;;4.30;99.90;;;;;;5029953;28;20487;-59
2022/12/07 03:35:52;;;;;;;21.23;9.67;;;4.40;99.90;;;;;;5027311;28;20573;-59
2022/12/07 03:38:24;;;;;;;32.63;14.37;;;4.50;99.90;;;;;;5051300;28;20484;-59
2022/12/07 03:40:57;;;;;;;21.93;10.43;;;4.60;99.90;;;;;;5045858;28;21139;-59
2022/12/07 03:43:24;;;;;;;31.97;12.00;;;4.50;99.90;;;;;;5040351;28;20487;-59
2022/12/07 03:46:02;;;;;;;29.63;13.80;;;4.40;99.90;;;;;;5039566;28;20849;-59
2022/12/07 03:48:36;;;;;;;35.60;14.00;;;4.40;99.90;;;;;;5039398;28;20484;-59
2022/12/07 03:51:12;;;;;;;25.33;11.30;;;4.40;99.90;;;;;;5041140;28;20479;-59
2022/12/07 03:53:44;;;;;;;19.13;10.47;;;4.40;99.90;;;;;;5020818;28;20473;-59
2022/12/07 03:56:12;;;;;;;21.47;11.60;;;4.40;99.90;;;;;;5028755;28;21057;-59
2022/12/07 03:58:40;;;;;;;22.73;10.60;;;4.50;99.90;;;;;;5013899;28;20479;-59
2022/12/07 04:01:09;;;;;;;22.57;10.30;;;4.60;99.90;;;;;;5040972;28;20486;-59
2022/12/07 04:03:35;;;;;;;19.70;9.70;;;4.70;99.90;;;;;;5030162;28;20487;-59
2022/12/07 04:06:02;;;;;;;29.03;13.63;;;4.90;99.90;;;;;;5026038;28;21007;-59
2022/12/07 04:08:29;;;;;;;29.30;11.70;;;4.90;99.90;;;;;;5037593;28;20480;-59
2022/12/07 04:10:56;;;;;;;19.43;9.77;;;4.90;99.90;;;;;;5038248;28;20515;-59
2022/12/07 04:13:22;;;;;;;36.30;15.00;;;4.80;99.90;;;;;;5031673;28;20501;-59
2022/12/07 04:15:49;;;;;;;26.90;9.93;;;4.70;99.90;;;;;;5022825;28;20479;-59
2022/12/07 04:18:17;;;;;;;42.47;17.87;;;4.70;99.90;;;;;;5035393;28;20468;-59
2022/12/07 04:20:44;;;;;;;31.10;11.17;;;4.60;99.90;;;;;;5029942;28;20492;-60
2022/12/07 04:23:11;;;;;;;26.27;11.00;;;4.60;99.90;;;;;;5040762;28;20753;-60
2022/12/07 04:25:38;;;;;;;23.97;11.53;;;4.60;99.90;;;;;;5031821;28;20488;-59
2022/12/07 04:28:05;;;;;;;19.60;9.00;;;4.70;99.90;;;;;;5027741;28;20936;-59
2022/12/07 04:30:32;;;;;;;25.50;11.30;;;4.90;99.90;;;;;;5034062;28;20485;-60
2022/12/07 04:32:58;;;;;;;18.83;10.47;;;4.90;99.90;;;;;;5021577;28;20524;-59
2022/12/07 04:35:26;;;;;;;35.90;15.57;;;4.90;99.90;;;;;;5016945;28;20488;-59
2022/12/07 04:37:53;;;;;;;31.00;14.03;;;4.90;99.90;;;;;;5016675;28;20485;-60
2022/12/07 04:40:20;;;;;;;40.70;16.90;;;4.80;99.90;;;;;;5018392;28;20489;-60
2022/12/07 04:42:46;;;;;;;18.53;10.33;;;4.90;99.90;;;;;;5017125;28;20594;-59
2022/12/07 04:45:13;;;;;;;30.77;12.17;;;4.90;99.90;;;;;;5020765;28;20477;-59
2022/12/07 04:47:40;;;;;;;24.57;11.23;;;4.90;99.90;;;;;;5032327;28;20483;-59
2022/12/07 04:50:08;;;;;;;27.93;13.83;;;4.90;99.90;;;;;;5039302;28;20483;-59
2022/12/07 04:52:36;;;;;;;26.80;12.10;;;4.90;99.90;;;;;;5040011;28;20480;-59
2022/12/07 04:55:03;;;;;;;25.67;11.77;;;4.90;99.90;;;;;;5040170;28;20491;-59
2022/12/07 04:57:29;;;;;;;28.20;14.03;;;4.80;99.90;;;;;;5038573;28;20491;-60
2022/12/07 04:59:56;;;;;;;33.47;12.60;;;4.80;99.90;;;;;;5037486;28;21334;-59
2022/12/07 05:02:23;;;;;;;38.83;16.83;;;4.70;99.90;;;;;;5035618;28;20510;-59
2022/12/07 05:04:49;;;;;;;30.40;14.77;;;4.70;99.90;;;;;;5034871;28;20480;-59
2022/12/07 05:07:16;;;;;;;34.10;13.80;;;4.70;99.90;;;;;;5035656;28;20949;-59
2022/12/07 05:09:44;;;;;;;32.50;13.07;;;4.70;99.90;;;;;;5037596;28;20484;-59
2022/12/07 05:12:11;;;;;;;34.83;15.07;;;4.70;99.90;;;;;;5037665;28;20511;-59
2022/12/07 05:14:38;;;;;;;23.10;11.17;;;4.70;99.90;;;;;;5035434;28;20957;-59
2022/12/07 05:17:05;;;;;;;23.67;11.33;;;4.70;99.90;;;;;;5028712;28;20504;-59
2022/12/07 05:19:31;;;;;;;25.90;12.20;;;4.80;99.90;;;;;;5022178;28;20988;-59
2022/12/07 05:21:58;;;;;;;22.20;9.77;;;4.80;99.90;;;;;;5020721;28;20488;-59
2022/12/07 05:24:25;;;;;;;33.87;14.83;;;4.90;99.90;;;;;;5019045;28;20485;-59
2022/12/07 05:26:53;;;;;;;29.80;14.00;;;5.00;99.90;;;;;;5018349;28;20485;-59
2022/12/07 05:29:19;;;;;;;29.13;11.13;;;5.00;99.90;;;;;;5031997;28;20476;-60
2022/12/07 05:31:46;;;;;;;24.03;10.67;;;5.00;99.90;;;;;;5030272;28;20900;-59
2022/12/07 05:34:14;;;;;;;25.83;12.60;;;5.00;99.90;;;;;;5028046;28;20493;-60
2022/12/07 05:36:40;;;;;;;22.60;10.60;;;5.00;99.90;;;;;;5036376;28;20484;-60
2022/12/07 05:39:08;;;;;;;26.20;10.80;;;4.90;99.90;;;;;;5039385;28;20480;-59
2022/12/07 05:44:20;;;;;;;32.73;11.80;;;4.90;99.90;;;;;;5028354;28;20563;-59
2022/12/07 05:46:47;;;;;;;24.37;11.13;;;5.00;99.90;;;;;;5028612;28;20498;-59
2022/12/07 05:49:13;;;;;;;26.27;12.40;;;5.10;99.90;;;;;;5024812;28;20539;-59
2022/12/07 05:51:40;;;;;;;23.00;11.13;;;5.20;99.90;;;;;;5025740;28;20481;-60
2022/12/07 05:54:07;;;;;;;25.60;10.90;;;5.20;99.90;;;;;;5031242;28;20496;-60
2022/12/07 05:56:34;;;;;;;28.27;13.97;;;5.10;99.90;;;;;;5035944;28;20486;-60
2022/12/07 06:01:46;;;;;;;20.13;10.07;;;4.70;99.90;;;;;;5036438;28;20760;-59
2022/12/07 06:04:13;;;;;;;33.13;15.60;;;4.70;99.90;;;;;;5016292;28;20722;-59
2022/12/07 06:06:41;;;;;;;23.97;12.20;;;4.70;99.90;;;;;;5035702;28;20746;-59
2022/12/07 06:09:08;;;;;;;18.67;10.00;;;4.80;99.90;;;;;;5039039;28;20492;-59
2022/12/07 06:14:19;;;;;;;33.77;14.90;;;4.90;99.90;;;;;;5037707;28;20487;-59
2022/12/07 06:16:48;;;;;;;24.40;12.17;;;4.90;99.90;;;;;;5037124;28;20489;-59
2022/12/07 06:19:14;;;;;;;30.17;13.77;;;5.00;99.90;;;;;;5025963;28;20574;-59
2022/12/07 06:21:41;;;;;;;29.40;11.47;;;5.00;99.90;;;;;;5037278;28;20491;-59
2022/12/07 06:24:09;;;;;;;24.10;12.37;;;5.00;99.90;;;;;;5036841;28;20853;-59
2022/12/07 06:26:36;;;;;;;34.50;12.93;;;5.00;99.90;;;;;;5036592;28;20488;-59
2022/12/07 06:29:03;;;;;;;24.43;10.70;;;5.00;99.90;;;;;;5036676;28;20488;-59
2022/12/07 06:31:30;;;;;;;29.83;14.73;;;4.90;99.90;;;;;;5034263;28;20503;-59
2022/12/07 06:34:00;;;;;;;27.60;12.73;;;4.90;99.90;;;;;;5033026;28;20551;-60
2022/12/07 06:36:26;;;;;;;49.07;16.23;;;5.00;99.90;;;;;;5033660;28;20488;-59
2022/12/07 06:38:54;;;;;;;26.53;12.57;;;5.10;99.90;;;;;;5035717;28;21239;-60
2022/12/07 06:41:21;;;;;;;28.60;12.53;;;5.20;99.90;;;;;;5039030;28;20488;-60
2022/12/07 06:43:48;;;;;;;38.70;11.20;;;5.10;99.90;;;;;;5037223;28;20495;-60
2022/12/07 06:46:15;;;;;;;29.23;13.40;;;5.10;99.90;;;;;;5034761;28;20988;-60
2022/12/07 06:48:42;;;;;;;26.20;11.90;;;5.00;99.90;;;;;;5035614;28;20491;-60
2022/12/07 06:51:11;;;;;;;22.50;11.17;;;5.00;99.90;;;;;;5038130;28;20488;-60
2022/12/07 06:53:38;;;;;;;20.67;11.30;;;5.00;99.90;;;;;;5038243;28;20844;-60
2022/12/07 06:56:05;;;;;;;31.60;15.30;;;5.00;99.90;;;;;;5036935;28;21064;-60
2022/12/07 06:58:32;;;;;;;36.13;12.30;;;5.10;99.90;;;;;;5036133;28;20847;-60
2022/12/07 07:00:59;;;;;;;28.93;12.13;;;5.10;99.90;;;;;;5036930;28;20480;-60
2022/12/07 07:03:26;;;;;;;40.17;18.20;;;5.00;99.90;;;;;;5037801;28;20480;-59
2022/12/07 07:05:53;;;;;;;33.83;14.17;;;4.90;99.90;;;;;;5033894;28;20480;-60
2022/12/07 07:08:21;;;;;;;42.73;16.67;;;4.90;99.90;;;;;;5035381;28;20495;-59
2022/12/07 07:10:47;;;;;;;34.73;14.17;;;5.00;99.90;;;;;;5035942;28;20484;-60
2022/12/07 07:13:14;;;;;;;48.97;15.37;;;5.00;99.90;;;;;;5010261;28;20477;-59
2022/12/07 07:15:41;;;;;;;30.23;11.73;;;5.00;99.90;;;;;;5014518;28;21137;-60
2022/12/07 07:18:09;;;;;;;24.00;12.17;;;5.20;99.90;;;;;;5015398;28;20547;-59
2022/12/07 07:20:36;;;;;;;39.20;13.17;;;5.20;99.90;;;;;;5016223;28;20742;-59
2022/12/07 07:23:02;;;;;;;36.33;15.30;;;5.30;99.90;;;;;;5017084;28;20494;-59
2022/12/07 07:25:30;;;;;;;38.80;16.70;;;5.40;99.90;;;;;;5015173;28;20496;-60
2022/12/07 07:27:57;;;;;;;30.80;12.30;;;5.40;99.90;;;;;;5015368;28;20481;-59
2022/12/07 07:30:24;;;;;;;52.67;20.57;;;5.40;99.90;;;;;;5028246;28;20483;-59
2022/12/07 07:32:51;;;;;;;37.37;15.77;;;5.30;99.90;;;;;;5034489;28;20475;-59
2022/12/07 07:35:18;;;;;;;36.80;12.30;;;5.30;99.90;;;;;;5034772;28;21168;-60
2022/12/07 07:37:44;;;;;;;30.57;12.70;;;5.20;99.90;;;;;;5011415;28;20487;-60
2022/12/07 07:40:12;;;;;;;42.07;13.23;;;5.20;99.90;;;;;;5032629;28;20492;-59
2022/12/07 07:42:40;;;;;;;56.60;14.87;;;5.20;99.90;;;;;;5021661;28;20507;-60
2022/12/07 07:45:08;;;;;;;28.80;12.47;;;5.20;99.90;;;;;;5033763;28;20534;-60
2022/12/07 07:47:34;;;;;;;27.33;12.50;;;5.20;99.90;;;;;;5033515;28;20996;-59
2022/12/07 07:50:01;;;;;;;39.37;14.37;;;5.20;99.90;;;;;;5037578;28;20480;-60
2022/12/07 07:52:28;;;;;;;38.20;17.80;;;5.10;99.90;;;;;;5036615;28;20821;-60
2022/12/07 07:54:55;;;;;;;33.17;15.33;;;5.10;99.90;;;;;;5034443;28;20499;-60
2022/12/07 07:57:22;;;;;;;33.63;14.70;;;5.10;99.90;;;;;;5013133;28;20817;-60
2022/12/07 07:59:50;;;;;;;30.50;14.77;;;5.10;99.90;;;;;;5015644;28;20487;-60
2022/12/07 08:02:18;;;;;;;44.87;18.83;;;5.10;99.90;;;;;;5017776;28;20481;-59
2022/12/07 08:04:46;;;;;;;36.20;14.33;;;5.10;99.90;;;;;;5034975;28;20475;-60
2022/12/07 08:07:13;;;;;;;37.43;15.63;;;5.10;99.90;;;;;;5021152;28;20868;-60
2022/12/07 08:09:40;;;;;;;31.40;14.17;;;5.10;99.90;;;;;;5022285;28;20492;-60
2022/12/07 08:12:08;;;;;;;34.63;12.93;;;5.10;99.90;;;;;;5021007;28;20479;-59
2022/12/07 08:14:35;;;;;;;33.00;15.20;;;5.00;99.90;;;;;;5019125;28;20480;-59
2022/12/07 08:17:03;;;;;;;38.77;16.20;;;5.10;99.90;;;;;;5029768;28;20480;-60
2022/12/07 08:19:30;;;;;;;37.70;15.27;;;5.10;99.90;;;;;;5036942;28;20880;-59
2022/12/07 08:21:56;;;;;;;34.67;15.53;;;5.20;99.90;;;;;;5036323;28;20484;-59
2022/12/07 08:24:24;;;;;;;45.90;19.10;;;5.20;99.90;;;;;;5035324;28;20480;-59
2022/12/07 08:26:51;;;;;;;40.80;16.23;;;5.30;99.90;;;;;;5025047;28;20473;-60
2022/12/07 08:29:18;;;;;;;48.33;18.20;;;5.30;99.90;;;;;;5017670;28;20485;-60
2022/12/07 08:31:45;;;;;;;28.57;13.60;;;5.20;99.90;;;;;;5022971;28;20489;-59
2022/12/07 08:34:14;;;;;;;40.37;14.47;;;5.20;99.90;;;;;;5020171;28;20481;-60
2022/12/07 08:36:40;;;;;;;31.87;14.50;;;5.30;99.90;;;;;;5016240;28;20492;-61
2022/12/07 08:39:07;;;;;;;59.10;22.70;;;5.30;99.90;;;;;;4970505;28;20862;-60
2022/12/07 08:41:34;;;;;;;41.23;17.10;;;5.50;99.90;;;;;;5018038;28;20479;-60
2022/12/07 08:44:01;;;;;;;44.20;17.87;;;5.50;99.90;;;;;;5011220;28;20496;-59
2022/12/07 08:46:33;;;;;;;52.80;19.40;;;5.60;99.90;;;;;;5006859;28;20837;-59
2022/12/07 08:49:04;;;;;;;49.83;16.87;;;5.50;99.90;;;;;;5003064;28;20508;-60
2022/12/07 08:51:32;;;;;;;37.13;16.83;;;5.40;99.90;;;;;;5018848;28;20477;-59
2022/12/07 08:54:02;;;;;;;51.83;14.50;;;5.40;99.90;;;;;;5015530;28;20481;-59
2022/12/07 08:56:28;;;;;;;38.17;17.30;;;5.40;99.90;;;;;;5020764;28;21008;-60
2022/12/07 08:58:55;;;;;;;33.67;15.70;;;5.40;99.90;;;;;;5014596;28;20488;-60
2022/12/07 09:01:22;;;;;;;52.63;19.43;;;5.40;99.90;;;;;;5018944;28;20485;-60
2022/12/07 09:03:49;;;;;;;40.87;18.23;;;5.30;99.90;;;;;;5013286;28;20855;-59
2022/12/07 09:06:16;;;;;;;45.20;18.57;;;5.30;99.90;;;;;;5018060;28;20484;-59
2022/12/07 09:08:48;;;;;;;34.67;17.00;;;5.30;99.90;;;;;;5021827;28;20480;-60
2022/12/07 09:11:15;;;;;;;40.20;17.77;;;5.30;99.90;;;;;;5007422;28;20884;-60
2022/12/07 09:13:42;;;;;;;47.93;19.13;;;5.40;99.90;;;;;;5018843;28;20480;-60
2022/12/07 09:16:08;;;;;;;48.87;18.63;;;5.40;99.90;;;;;;5023813;28;20507;-60
2022/12/07 09:18:35;;;;;;;51.20;21.87;;;5.30;99.90;;;;;;5018325;28;20481;-60
2022/12/07 09:21:02;;;;;;;38.63;17.43;;;5.40;99.90;;;;;;5016849;28;20998;-60
2022/12/07 09:23:29;;;;;;;63.57;20.30;;;5.30;99.90;;;;;;5015023;28;20794;-60
2022/12/07 09:26:00;;;;;;;50.90;22.10;;;5.40;99.90;;;;;;5031041;28;20475;-59
2022/12/07 09:28:27;;;;;;;41.17;19.83;;;5.30;99.90;;;;;;5021064;28;21035;-59
2022/12/07 09:30:54;;;;;;;41.40;15.30;;;5.40;99.90;;;;;;5017601;28;20481;-59
2022/12/07 09:33:20;;;;;;;64.23;24.00;;;5.50;99.90;;;;;;5011225;28;20493;-60
2022/12/07 09:35:47;;;;;;;57.73;24.47;;;5.40;99.90;;;;;;5004439;28;20554;-60
2022/12/07 09:38:15;;;;;;;65.60;25.77;;;5.40;99.90;;;;;;5025471;28;20489;-60
2022/12/07 09:40:43;;;;;;;41.13;16.53;;;5.50;99.90;;;;;;5012138;28;20477;-60
2022/12/07 09:43:16;;;;;;;51.77;20.47;;;5.50;99.90;;;;;;5017509;28;20721;-60
2022/12/07 09:45:45;;;;;;;43.83;18.83;;;;;;;;;;5009189;28;20495;-60
2022/12/07 09:48:19;;;;;;;42.37;17.20;;;5.40;99.90;;;;;;5036690;28;21052;-60
2022/12/07 09:50:47;;;;;;;45.37;18.17;;;5.40;99.90;;;;;;5031630;28;20563;-59
2022/12/07 09:53:19;;;;;;;40.47;18.73;;;5.40;99.90;;;;;;5018054;28;20574;-59
2022/12/07 09:55:46;;;;;;;37.27;15.53;;;5.50;99.90;;;;;;5019315;28;20485;-60
2022/12/07 09:58:21;;;;;;;52.20;20.97;;;5.50;99.90;;;;;;5017410;28;20587;-59
2022/12/07 10:00:48;;;;;;;52.63;26.37;;;5.50;99.90;;;;;;5029449;28;20488;-59
2022/12/07 10:03:14;;;;;;;53.57;18.80;;;5.50;99.90;;;;;;5018191;28;20473;-60
2022/12/07 10:05:44;;;;;;;39.20;15.20;;;5.50;99.90;;;;;;5043153;28;20483;-59
2022/12/07 10:08:12;;;;;;;43.10;19.50;;;5.50;99.90;;;;;;5034355;28;20488;-59
2022/12/07 10:10:39;;;;;;;41.83;22.00;;;5.50;99.90;;;;;;5032014;28;20479;-59
2022/12/07 10:13:09;;;;;;;47.87;22.33;;;5.50;99.90;;;;;;5035299;28;20484;-59
2022/12/07 10:15:52;;;;;;;24.27;13.83;;;5.50;99.90;;;;;;5031551;28;20508;-59
2022/12/07 10:18:27;;;;;;;60.03;24.90;;;5.50;99.90;;;;;;5030132;28;21215;-59
2022/12/07 10:21:02;;;;;;;47.90;20.87;;;;;;;;;;5045222;28;20470;-60
2022/12/07 10:23:29;;;;;;;44.60;18.37;;;5.70;99.90;;;;;;5042759;28;20475;-60
2022/12/07 10:25:55;;;;;;;47.73;22.23;;;5.60;99.90;;;;;;5039265;28;20485;-60
2022/12/07 10:28:23;;;;;;;50.47;20.93;;;;;;;;;;5041348;28;20579;-61
2022/12/07 10:30:56;;;;;;;49.97;23.90;;;5.60;99.90;;;;;;5031843;28;20621;-60
2022/12/07 10:33:31;;;;;;;62.60;24.80;;;5.70;99.90;;;;;;5030987;28;20472;-60
2022/12/07 10:36:00;;;;;;;58.73;23.10;;;5.80;99.90;;;;;;5030121;28;20471;-60
2022/12/07 10:38:28;;;;;;;41.30;14.23;;;5.70;99.90;;;;;;5031753;28;20484;-60
2022/12/07 10:41:05;;;;;;;63.80;23.77;;;5.80;99.90;;;;;;5030951;28;20480;-61
2022/12/07 10:43:32;;;;;;;42.67;18.67;;;5.90;99.90;;;;;;5033412;28;20976;-60
2022/12/07 10:46:33;;;;;;;48.13;21.50;;;5.90;99.90;;;;;;5030022;28;20563;-60
2022/12/07 10:49:11;;;;;;;41.47;19.20;;;6.00;99.90;;;;;;5013816;28;21227;-60
2022/12/07 10:51:47;;;;;;;57.07;19.40;;;6.00;99.90;;;;;;5035115;28;20827;-60
2022/12/07 10:54:22;;;;;;;50.87;22.07;;;6.00;99.90;;;;;;5001360;28;20945;-60
2022/12/07 10:57:07;;;;;;;45.53;20.63;;;5.80;99.90;;;;;;5012201;28;20681;-61
2022/12/07 10:59:57;;;;;;;43.40;18.53;;;5.80;99.90;;;;;;5011474;28;20477;-60
2022/12/07 11:02:44;;;;;;;58.63;23.37;;;5.80;99.90;;;;;;5017252;28;20476;-60
2022/12/07 11:05:24;;;;;;;47.13;21.03;;;5.90;99.90;;;;;;5008513;28;20468;-61
2022/12/07 11:08:03;;;;;;;57.00;21.37;;;5.80;99.90;;;;;;5019284;28;20484;-60
2022/12/07 11:10:39;;;;;;;47.63;22.07;;;5.70;99.90;;;;;;5009929;28;20486;-60
2022/12/07 11:13:24;;;;;;;39.67;18.63;;;5.80;99.90;;;;;;5012078;28;20477;-60
2022/12/07 11:16:03;;;;;;;52.93;21.80;;;5.80;99.90;;;;;;5013241;28;20488;-60
2022/12/07 11:18:42;;;;;;;55.00;23.43;;;5.70;99.90;;;;;;5020513;28;20475;-60
2022/12/07 11:21:19;;;;;;;46.37;20.00;;;5.70;99.90;;;;;;5011377;28;20762;-60
2022/12/07 11:23:53;;;;;;;44.60;19.90;;;5.90;99.90;;;;;;4997308;28;20941;-60
2022/12/07 11:26:30;;;;;;;60.60;24.53;;;5.90;99.90;;;;;;5018623;28;20503;-60
2022/12/07 11:29:15;;;;;;;45.93;21.93;;;6.00;99.90;;;;;;5010867;28;21534;-60
2022/12/07 11:31:58;;;;;;;45.03;17.53;;;6.00;99.90;;;;;;5015112;28;20871;-60
2022/12/07 11:34:37;;;;;;;62.60;26.60;;;6.10;99.90;;;;;;5029676;28;20992;-60
2022/12/07 11:37:12;;;;;;;48.93;23.70;;;6.00;99.90;;;;;;5019718;28;20465;-61
2022/12/07 11:39:45;;;;;;;35.53;16.80;;;5.90;99.90;;;;;;5012001;28;20491;-61
2022/12/07 11:42:18;;;;;;;39.83;17.27;;;6.00;99.90;;;;;;5016629;28;20477;-60
2022/12/07 11:44:52;;;;;;;38.70;15.97;;;6.10;99.90;;;;;;5013856;28;20703;-61
2022/12/07 11:47:26;;;;;;;42.30;17.20;;;6.20;99.90;;;;;;5011343;28;20552;-61
2022/12/07 11:49:57;;;;;;;28.57;13.43;;;6.20;99.90;;;;;;5007197;28;21209;-60
2022/12/07 11:52:31;;;;;;;45.57;20.53;;;6.30;99.90;;;;;;5019078;28;20481;-60
2022/12/07 11:55:01;;;;;;;40.20;17.33;;;6.30;99.90;;;;;;5008056;28;20488;-60
2022/12/07 11:57:37;;;;;;;38.23;17.03;;;6.40;99.90;;;;;;5011216;28;20587;-59
2022/12/07 12:00:14;;;;;;;43.30;16.03;;;6.60;99.90;;;;;;5010451;28;20500;-60
2022/12/07 12:02:50;;;;;;;36.50;15.33;;;6.60;99.90;;;;;;5009437;28;20997;-60
2022/12/07 12:05:20;;;;;;;50.50;21.80;;;6.70;99.90;;;;;;5022086;28;20492;-60
2022/12/07 12:07:54;;;;;;;34.97;15.67;;;6.70;99.90;;;;;;5022193;28;20531;-60
2022/12/07 12:10:28;;;;;;;70.90;21.70;;;6.70;99.90;;;;;;5009921;28;20483;-60
2022/12/07 12:13:25;;;;;;;39.00;15.93;;;6.60;99.90;;;;;;5015144;28;21017;-60
2022/12/07 12:16:14;;;;;;;43.37;19.20;;;6.70;99.90;;;;;;5012090;28;20689;-60
2022/12/07 12:18:54;;;;;;;37.80;12.40;;;6.70;99.90;;;;;;5017192;28;20892;-60
2022/12/07 12:21:27;;;;;;;43.93;18.43;;;6.70;99.90;;;;;;5014812;28;20477;-60
2022/12/07 12:24:00;;;;;;;31.90;13.20;;;6.70;99.90;;;;;;5026469;28;20487;-60
2022/12/07 12:26:29;;;;;;;39.83;16.30;;;6.70;99.90;;;;;;5017280;28;20520;-60
2022/12/07 12:28:59;;;;;;;47.97;17.30;;;6.70;99.90;;;;;;5014640;28;20481;-60
2022/12/07 12:31:44;;;;;;;46.07;17.00;;;6.70;99.90;;;;;;5019972;28;20641;-60
2022/12/07 12:34:40;;;;;;;40.17;16.40;;;6.70;99.90;;;;;;5018812;28;20576;-60
2022/12/07 12:37:44;;;;;;;40.80;16.27;;;6.70;99.90;;;;;;5015650;28;21024;-60
2022/12/07 12:40:39;;;;;;;38.13;15.07;;;6.70;99.90;;;;;;5032896;28;20975;-59
2022/12/07 12:43:48;;;;;;;34.23;13.60;;;6.70;99.90;;;;;;5015615;28;20899;-60
2022/12/07 12:46:47;;;;;;;34.63;12.90;;;6.70;99.90;;;;;;5014071;28;20503;-59
2022/12/07 12:49:39;;;;;;;50.97;14.70;;;8.30;99.90;;;;;;5017354;28;20476;-60
2022/12/07 12:52:51;;;;;;;31.20;14.30;;;6.70;99.90;;;;;;4999555;28;20485;-60
2022/12/07 12:55:56;;;;;;;45.53;18.33;;;6.70;99.90;;;;;;5023846;28;20547;-60
2022/12/07 12:58:34;;;;;;;48.83;20.03;;;6.70;99.90;;;;;;5024621;28;20489;-60
2022/12/07 13:01:40;;;;;;;31.90;15.97;;;6.70;99.90;;;;;;5019825;28;20795;-60
2022/12/07 13:04:39;;;;;;;37.43;16.60;;;6.80;99.90;;;;;;5012974;28;20883;-60
2022/12/07 13:07:09;;;;;;;45.23;14.13;;;6.90;99.90;;;;;;4973198;28;20477;-60